Farnborough Airport

EGLF | FAB

Farnborough , England , United Kingdom

Sunday, January 19th, 2020 | 19:54

Weather

EGLF 191950Z AUTO 23003KT 9999 NCD M03/M04 Q1048

Charts

1 Available

Gates

21 Available

Runways

1 Available

Events

No events for this airport


New event